sensor_id;sensor_type;location;lat;lon;timestamp;P1;durP1;ratioP1;P2;durP2;ratioP2
20456;SDS011;10387;51.102;6.848;2023-02-21T00:00:26;33.33;;;21.83;;
20456;SDS011;10387;51.102;6.848;2023-02-21T00:03:19;36.00;;;23.70;;
20456;SDS011;10387;51.102;6.848;2023-02-21T00:06:06;38.87;;;23.00;;
20456;SDS011;10387;51.102;6.848;2023-02-21T00:08:51;37.27;;;22.93;;
20456;SDS011;10387;51.102;6.848;2023-02-21T00:11:39;36.63;;;23.83;;
20456;SDS011;10387;51.102;6.848;2023-02-21T00:14:24;33.97;;;23.03;;
20456;SDS011;10387;51.102;6.848;2023-02-21T00:17:09;35.40;;;22.17;;
20456;SDS011;10387;51.102;6.848;2023-02-21T00:19:53;33.10;;;22.23;;
20456;SDS011;10387;51.102;6.848;2023-02-21T00:22:37;34.70;;;22.07;;
20456;SDS011;10387;51.102;6.848;2023-02-21T00:25:22;36.63;;;22.47;;
20456;SDS011;10387;51.102;6.848;2023-02-21T00:28:06;33.60;;;21.70;;
20456;SDS011;10387;51.102;6.848;2023-02-21T00:30:50;34.67;;;22.20;;
20456;SDS011;10387;51.102;6.848;2023-02-21T00:33:35;33.77;;;22.70;;
20456;SDS011;10387;51.102;6.848;2023-02-21T00:36:20;37.17;;;23.77;;
20456;SDS011;10387;51.102;6.848;2023-02-21T00:39:04;36.60;;;23.00;;
20456;SDS011;10387;51.102;6.848;2023-02-21T00:41:48;34.00;;;23.03;;
20456;SDS011;10387;51.102;6.848;2023-02-21T00:44:33;37.73;;;23.07;;
20456;SDS011;10387;51.102;6.848;2023-02-21T00:47:17;35.87;;;22.00;;
20456;SDS011;10387;51.102;6.848;2023-02-21T00:50:01;33.33;;;22.47;;
20456;SDS011;10387;51.102;6.848;2023-02-21T00:52:46;33.27;;;22.17;;
20456;SDS011;10387;51.102;6.848;2023-02-21T00:55:30;32.80;;;20.83;;
20456;SDS011;10387;51.102;6.848;2023-02-21T00:58:14;34.27;;;21.20;;
20456;SDS011;10387;51.102;6.848;2023-02-21T01:00:59;33.43;;;22.53;;
20456;SDS011;10387;51.102;6.848;2023-02-21T01:03:43;35.00;;;21.87;;
20456;SDS011;10387;51.102;6.848;2023-02-21T01:06:27;33.23;;;22.10;;
20456;SDS011;10387;51.102;6.848;2023-02-21T01:09:12;33.20;;;21.63;;
20456;SDS011;10387;51.102;6.848;2023-02-21T01:11:57;36.73;;;22.37;;
20456;SDS011;10387;51.102;6.848;2023-02-21T01:14:41;33.50;;;23.80;;
20456;SDS011;10387;51.102;6.848;2023-02-21T01:17:25;35.43;;;22.97;;
20456;SDS011;10387;51.102;6.848;2023-02-21T01:20:09;35.17;;;22.07;;
20456;SDS011;10387;51.102;6.848;2023-02-21T01:22:54;33.77;;;21.50;;
20456;SDS011;10387;51.102;6.848;2023-02-21T01:25:40;33.73;;;21.67;;
20456;SDS011;10387;51.102;6.848;2023-02-21T01:28:27;33.70;;;22.03;;
20456;SDS011;10387;51.102;6.848;2023-02-21T01:31:15;35.67;;;22.53;;
20456;SDS011;10387;51.102;6.848;2023-02-21T01:34:00;37.53;;;22.90;;
20456;SDS011;10387;51.102;6.848;2023-02-21T01:36:46;38.17;;;23.30;;
20456;SDS011;10387;51.102;6.848;2023-02-21T01:39:30;36.20;;;22.30;;
20456;SDS011;10387;51.102;6.848;2023-02-21T01:42:14;36.00;;;23.60;;
20456;SDS011;10387;51.102;6.848;2023-02-21T01:48:01;37.00;;;23.50;;
20456;SDS011;10387;51.102;6.848;2023-02-21T01:50:46;37.90;;;23.10;;
20456;SDS011;10387;51.102;6.848;2023-02-21T01:53:30;36.00;;;23.83;;
20456;SDS011;10387;51.102;6.848;2023-02-21T01:56:14;38.20;;;24.57;;
20456;SDS011;10387;51.102;6.848;2023-02-21T01:59:00;38.33;;;24.00;;
20456;SDS011;10387;51.102;6.848;2023-02-21T02:01:53;40.40;;;24.13;;
20456;SDS011;10387;51.102;6.848;2023-02-21T02:04:43;43.67;;;25.67;;
20456;SDS011;10387;51.102;6.848;2023-02-21T02:07:29;43.90;;;26.47;;
20456;SDS011;10387;51.102;6.848;2023-02-21T02:10:15;41.93;;;26.70;;
20456;SDS011;10387;51.102;6.848;2023-02-21T02:18:22;45.30;;;27.23;;
20456;SDS011;10387;51.102;6.848;2023-02-21T02:21:04;44.27;;;27.20;;
20456;SDS011;10387;51.102;6.848;2023-02-21T02:40:04;39.87;;;25.00;;
20456;SDS011;10387;51.102;6.848;2023-02-21T02:48:22;39.77;;;25.47;;
20456;SDS011;10387;51.102;6.848;2023-02-21T02:50:57;41.10;;;25.03;;
20456;SDS011;10387;51.102;6.848;2023-02-21T02:53:28;45.93;;;26.47;;
20456;SDS011;10387;51.102;6.848;2023-02-21T02:55:57;46.10;;;26.37;;
20456;SDS011;10387;51.102;6.848;2023-02-21T02:58:27;43.17;;;26.63;;
20456;SDS011;10387;51.102;6.848;2023-02-21T03:01:06;50.27;;;29.63;;
20456;SDS011;10387;51.102;6.848;2023-02-21T03:11:17;52.40;;;29.53;;
20456;SDS011;10387;51.102;6.848;2023-02-21T03:13:50;54.10;;;31.87;;
20456;SDS011;10387;51.102;6.848;2023-02-21T03:16:25;58.60;;;32.77;;
20456;SDS011;10387;51.102;6.848;2023-02-21T03:19:06;60.83;;;33.47;;
20456;SDS011;10387;51.102;6.848;2023-02-21T03:21:44;55.00;;;32.83;;
20456;SDS011;10387;51.102;6.848;2023-02-21T03:24:15;63.07;;;32.60;;
20456;SDS011;10387;51.102;6.848;2023-02-21T03:26:43;61.43;;;33.83;;
20456;SDS011;10387;51.102;6.848;2023-02-21T03:29:32;57.77;;;33.70;;
20456;SDS011;10387;51.102;6.848;2023-02-21T03:32:09;61.33;;;34.43;;
20456;SDS011;10387;51.102;6.848;2023-02-21T03:34:45;58.57;;;33.93;;
20456;SDS011;10387;51.102;6.848;2023-02-21T03:37:28;66.40;;;35.60;;
20456;SDS011;10387;51.102;6.848;2023-02-21T03:39:56;58.30;;;33.40;;
20456;SDS011;10387;51.102;6.848;2023-02-21T03:42:22;64.63;;;34.57;;
20456;SDS011;10387;51.102;6.848;2023-02-21T03:44:48;62.07;;;33.17;;
20456;SDS011;10387;51.102;6.848;2023-02-21T03:47:14;60.37;;;34.07;;
20456;SDS011;10387;51.102;6.848;2023-02-21T03:49:40;62.50;;;34.37;;
20456;SDS011;10387;51.102;6.848;2023-02-21T03:52:06;60.60;;;34.20;;
20456;SDS011;10387;51.102;6.848;2023-02-21T03:54:37;61.53;;;33.47;;
20456;SDS011;10387;51.102;6.848;2023-02-21T03:57:08;67.63;;;36.27;;
20456;SDS011;10387;51.102;6.848;2023-02-21T03:59:39;59.77;;;33.60;;
20456;SDS011;10387;51.102;6.848;2023-02-21T04:02:05;64.73;;;34.97;;
20456;SDS011;10387;51.102;6.848;2023-02-21T04:04:32;64.70;;;35.10;;
20456;SDS011;10387;51.102;6.848;2023-02-21T04:07:05;63.17;;;34.70;;
20456;SDS011;10387;51.102;6.848;2023-02-21T04:09:32;67.23;;;36.00;;
20456;SDS011;10387;51.102;6.848;2023-02-21T04:11:58;68.43;;;35.40;;
20456;SDS011;10387;51.102;6.848;2023-02-21T04:14:25;64.37;;;35.73;;
20456;SDS011;10387;51.102;6.848;2023-02-21T04:19:23;58.73;;;33.93;;
20456;SDS011;10387;51.102;6.848;2023-02-21T04:21:55;63.70;;;35.33;;
20456;SDS011;10387;51.102;6.848;2023-02-21T04:24:21;60.80;;;35.40;;
20456;SDS011;10387;51.102;6.848;2023-02-21T04:26:47;62.03;;;34.63;;
20456;SDS011;10387;51.102;6.848;2023-02-21T04:29:13;60.53;;;33.67;;
20456;SDS011;10387;51.102;6.848;2023-02-21T04:31:39;63.67;;;35.40;;
20456;SDS011;10387;51.102;6.848;2023-02-21T04:34:09;66.90;;;35.13;;
20456;SDS011;10387;51.102;6.848;2023-02-21T04:36:35;64.20;;;34.20;;
20456;SDS011;10387;51.102;6.848;2023-02-21T04:39:04;65.83;;;35.67;;
20456;SDS011;10387;51.102;6.848;2023-02-21T04:41:30;62.53;;;35.30;;
20456;SDS011;10387;51.102;6.848;2023-02-21T04:43:58;66.57;;;35.43;;
20456;SDS011;10387;51.102;6.848;2023-02-21T04:46:24;64.03;;;35.63;;
20456;SDS011;10387;51.102;6.848;2023-02-21T04:48:50;68.53;;;35.83;;
20456;SDS011;10387;51.102;6.848;2023-02-21T04:51:17;67.67;;;36.23;;
20456;SDS011;10387;51.102;6.848;2023-02-21T04:53:45;69.40;;;35.97;;
20456;SDS011;10387;51.102;6.848;2023-02-21T04:56:13;68.03;;;34.83;;
20456;SDS011;10387;51.102;6.848;2023-02-21T04:58:40;68.80;;;37.57;;
20456;SDS011;10387;51.102;6.848;2023-02-21T05:01:06;69.03;;;37.57;;
20456;SDS011;10387;51.102;6.848;2023-02-21T05:03:32;73.07;;;37.30;;
20456;SDS011;10387;51.102;6.848;2023-02-21T05:05:57;70.83;;;36.77;;
20456;SDS011;10387;51.102;6.848;2023-02-21T05:08:23;70.40;;;35.90;;
20456;SDS011;10387;51.102;6.848;2023-02-21T05:10:49;68.07;;;36.17;;
20456;SDS011;10387;51.102;6.848;2023-02-21T05:13:14;68.07;;;36.47;;
20456;SDS011;10387;51.102;6.848;2023-02-21T05:15:40;74.30;;;37.20;;
20456;SDS011;10387;51.102;6.848;2023-02-21T05:18:06;70.43;;;36.83;;
20456;SDS011;10387;51.102;6.848;2023-02-21T05:20:32;74.23;;;36.97;;
20456;SDS011;10387;51.102;6.848;2023-02-21T05:22:58;67.43;;;36.03;;
20456;SDS011;10387;51.102;6.848;2023-02-21T05:25:23;72.47;;;36.60;;
20456;SDS011;10387;51.102;6.848;2023-02-21T05:27:50;70.30;;;37.27;;
20456;SDS011;10387;51.102;6.848;2023-02-21T05:30:18;70.90;;;35.40;;
20456;SDS011;10387;51.102;6.848;2023-02-21T05:32:46;62.87;;;34.23;;
20456;SDS011;10387;51.102;6.848;2023-02-21T05:35:12;68.47;;;34.07;;
20456;SDS011;10387;51.102;6.848;2023-02-21T05:37:39;68.50;;;34.70;;
20456;SDS011;10387;51.102;6.848;2023-02-21T05:40:05;72.97;;;34.73;;
20456;SDS011;10387;51.102;6.848;2023-02-21T05:42:31;68.73;;;35.10;;
20456;SDS011;10387;51.102;6.848;2023-02-21T05:44:57;67.87;;;34.40;;
20456;SDS011;10387;51.102;6.848;2023-02-21T05:47:23;67.30;;;35.07;;
20456;SDS011;10387;51.102;6.848;2023-02-21T05:49:48;70.07;;;35.63;;
20456;SDS011;10387;51.102;6.848;2023-02-21T05:52:14;70.43;;;34.33;;
20456;SDS011;10387;51.102;6.848;2023-02-21T05:54:41;68.00;;;33.83;;
20456;SDS011;10387;51.102;6.848;2023-02-21T05:57:07;66.13;;;34.07;;
20456;SDS011;10387;51.102;6.848;2023-02-21T05:59:33;66.80;;;34.63;;
20456;SDS011;10387;51.102;6.848;2023-02-21T06:01:58;70.93;;;35.33;;
20456;SDS011;10387;51.102;6.848;2023-02-21T06:04:24;68.27;;;34.23;;
20456;SDS011;10387;51.102;6.848;2023-02-21T06:06:50;67.77;;;35.77;;
20456;SDS011;10387;51.102;6.848;2023-02-21T06:09:18;73.20;;;36.20;;
20456;SDS011;10387;51.102;6.848;2023-02-21T06:11:44;65.30;;;33.77;;
20456;SDS011;10387;51.102;6.848;2023-02-21T06:14:12;62.43;;;33.20;;
20456;SDS011;10387;51.102;6.848;2023-02-21T06:16:41;58.43;;;32.63;;
20456;SDS011;10387;51.102;6.848;2023-02-21T06:19:07;57.20;;;29.80;;
20456;SDS011;10387;51.102;6.848;2023-02-21T06:21:33;64.37;;;32.30;;
20456;SDS011;10387;51.102;6.848;2023-02-21T06:24:02;64.30;;;32.13;;
20456;SDS011;10387;51.102;6.848;2023-02-21T06:26:29;66.07;;;33.27;;
20456;SDS011;10387;51.102;6.848;2023-02-21T06:28:55;64.60;;;32.80;;
20456;SDS011;10387;51.102;6.848;2023-02-21T06:31:20;60.47;;;32.33;;
20456;SDS011;10387;51.102;6.848;2023-02-21T06:33:47;60.37;;;34.50;;
20456;SDS011;10387;51.102;6.848;2023-02-21T06:36:15;61.07;;;32.73;;
20456;SDS011;10387;51.102;6.848;2023-02-21T06:38:43;64.70;;;33.47;;
20456;SDS011;10387;51.102;6.848;2023-02-21T06:41:10;61.90;;;34.00;;
20456;SDS011;10387;51.102;6.848;2023-02-21T06:43:35;66.67;;;33.13;;
20456;SDS011;10387;51.102;6.848;2023-02-21T06:46:02;72.77;;;35.47;;
20456;SDS011;10387;51.102;6.848;2023-02-21T06:48:28;68.13;;;34.87;;
20456;SDS011;10387;51.102;6.848;2023-02-21T06:50:54;67.33;;;34.60;;
20456;SDS011;10387;51.102;6.848;2023-02-21T06:53:20;69.80;;;35.50;;
20456;SDS011;10387;51.102;6.848;2023-02-21T06:55:46;69.97;;;35.83;;
20456;SDS011;10387;51.102;6.848;2023-02-21T06:58:12;73.67;;;34.63;;
20456;SDS011;10387;51.102;6.848;2023-02-21T07:00:38;70.10;;;34.60;;
20456;SDS011;10387;51.102;6.848;2023-02-21T07:03:04;68.30;;;34.60;;
20456;SDS011;10387;51.102;6.848;2023-02-21T07:05:29;70.87;;;34.10;;
20456;SDS011;10387;51.102;6.848;2023-02-21T07:07:59;65.70;;;34.17;;
20456;SDS011;10387;51.102;6.848;2023-02-21T07:10:26;67.50;;;33.63;;
20456;SDS011;10387;51.102;6.848;2023-02-21T07:12:52;70.00;;;31.70;;
20456;SDS011;10387;51.102;6.848;2023-02-21T07:15:17;69.43;;;34.10;;
20456;SDS011;10387;51.102;6.848;2023-02-21T07:17:43;66.33;;;33.60;;
20456;SDS011;10387;51.102;6.848;2023-02-21T07:20:09;62.37;;;31.47;;
20456;SDS011;10387;51.102;6.848;2023-02-21T07:22:35;55.90;;;29.87;;
20456;SDS011;10387;51.102;6.848;2023-02-21T07:25:01;59.73;;;31.50;;
20456;SDS011;10387;51.102;6.848;2023-02-21T07:27:26;55.33;;;29.47;;
20456;SDS011;10387;51.102;6.848;2023-02-21T07:29:53;58.97;;;29.67;;
20456;SDS011;10387;51.102;6.848;2023-02-21T07:32:19;58.07;;;28.50;;
20456;SDS011;10387;51.102;6.848;2023-02-21T07:34:46;52.63;;;26.97;;
20456;SDS011;10387;51.102;6.848;2023-02-21T07:37:12;49.80;;;27.50;;
20456;SDS011;10387;51.102;6.848;2023-02-21T07:39:38;52.00;;;27.73;;
20456;SDS011;10387;51.102;6.848;2023-02-21T07:42:04;55.33;;;28.37;;
20456;SDS011;10387;51.102;6.848;2023-02-21T07:44:32;55.37;;;28.07;;
20456;SDS011;10387;51.102;6.848;2023-02-21T07:46:58;50.77;;;28.50;;
20456;SDS011;10387;51.102;6.848;2023-02-21T07:49:24;54.27;;;28.10;;
20456;SDS011;10387;51.102;6.848;2023-02-21T07:51:49;57.20;;;28.93;;
20456;SDS011;10387;51.102;6.848;2023-02-21T07:54:16;59.63;;;29.13;;
20456;SDS011;10387;51.102;6.848;2023-02-21T07:56:46;59.57;;;29.90;;
20456;SDS011;10387;51.102;6.848;2023-02-21T07:59:13;61.40;;;29.23;;
20456;SDS011;10387;51.102;6.848;2023-02-21T08:01:39;55.40;;;28.23;;
20456;SDS011;10387;51.102;6.848;2023-02-21T08:04:05;57.37;;;28.03;;
20456;SDS011;10387;51.102;6.848;2023-02-21T08:06:32;56.20;;;27.43;;
20456;SDS011;10387;51.102;6.848;2023-02-21T08:08:59;56.57;;;28.73;;
20456;SDS011;10387;51.102;6.848;2023-02-21T08:11:24;56.30;;;27.87;;
20456;SDS011;10387;51.102;6.848;2023-02-21T08:13:50;60.73;;;28.50;;
20456;SDS011;10387;51.102;6.848;2023-02-21T08:16:15;62.20;;;29.20;;
20456;SDS011;10387;51.102;6.848;2023-02-21T08:18:41;58.47;;;28.50;;
20456;SDS011;10387;51.102;6.848;2023-02-21T08:21:08;59.13;;;28.80;;
20456;SDS011;10387;51.102;6.848;2023-02-21T08:23:35;60.47;;;29.17;;
20456;SDS011;10387;51.102;6.848;2023-02-21T08:28:30;57.40;;;28.30;;
20456;SDS011;10387;51.102;6.848;2023-02-21T08:33:27;59.70;;;29.07;;
20456;SDS011;10387;51.102;6.848;2023-02-21T08:35:53;60.33;;;29.63;;
20456;SDS011;10387;51.102;6.848;2023-02-21T08:38:19;65.73;;;29.03;;
20456;SDS011;10387;51.102;6.848;2023-02-21T08:40:45;58.40;;;31.07;;
20456;SDS011;10387;51.102;6.848;2023-02-21T08:43:10;58.10;;;28.40;;
20456;SDS011;10387;51.102;6.848;2023-02-21T08:45:36;64.27;;;30.50;;
20456;SDS011;10387;51.102;6.848;2023-02-21T08:48:02;63.37;;;30.37;;
20456;SDS011;10387;51.102;6.848;2023-02-21T08:50:28;63.87;;;30.07;;
20456;SDS011;10387;51.102;6.848;2023-02-21T08:52:54;61.17;;;30.27;;
20456;SDS011;10387;51.102;6.848;2023-02-21T08:55:21;66.37;;;31.97;;
20456;SDS011;10387;51.102;6.848;2023-02-21T08:57:49;70.13;;;33.67;;
20456;SDS011;10387;51.102;6.848;2023-02-21T09:00:16;72.57;;;33.83;;
20456;SDS011;10387;51.102;6.848;2023-02-21T09:02:43;78.00;;;32.87;;
20456;SDS011;10387;51.102;6.848;2023-02-21T09:05:14;75.67;;;35.10;;
20456;SDS011;10387;51.102;6.848;2023-02-21T09:07:43;72.93;;;33.33;;
20456;SDS011;10387;51.102;6.848;2023-02-21T09:10:09;64.43;;;30.73;;
20456;SDS011;10387;51.102;6.848;2023-02-21T09:12:36;59.23;;;29.00;;
20456;SDS011;10387;51.102;6.848;2023-02-21T09:15:03;60.97;;;29.87;;
20456;SDS011;10387;51.102;6.848;2023-02-21T09:17:29;61.70;;;30.17;;
20456;SDS011;10387;51.102;6.848;2023-02-21T09:19:59;67.80;;;31.77;;
20456;SDS011;10387;51.102;6.848;2023-02-21T09:22:26;66.50;;;30.53;;
20456;SDS011;10387;51.102;6.848;2023-02-21T09:24:52;68.63;;;30.17;;
20456;SDS011;10387;51.102;6.848;2023-02-21T09:27:17;65.77;;;31.07;;
20456;SDS011;10387;51.102;6.848;2023-02-21T09:29:44;59.70;;;30.43;;
20456;SDS011;10387;51.102;6.848;2023-02-21T09:32:11;60.47;;;29.10;;
20456;SDS011;10387;51.102;6.848;2023-02-21T09:34:37;64.53;;;29.30;;
20456;SDS011;10387;51.102;6.848;2023-02-21T09:37:04;62.00;;;28.70;;
20456;SDS011;10387;51.102;6.848;2023-02-21T09:39:30;60.20;;;28.13;;
20456;SDS011;10387;51.102;6.848;2023-02-21T09:41:55;62.47;;;29.80;;
20456;SDS011;10387;51.102;6.848;2023-02-21T09:44:26;56.30;;;29.70;;
20456;SDS011;10387;51.102;6.848;2023-02-21T09:46:55;65.80;;;31.70;;
20456;SDS011;10387;51.102;6.848;2023-02-21T09:49:27;68.83;;;32.10;;
20456;SDS011;10387;51.102;6.848;2023-02-21T09:51:57;66.67;;;31.97;;
20456;SDS011;10387;51.102;6.848;2023-02-21T09:54:32;66.73;;;30.73;;
20456;SDS011;10387;51.102;6.848;2023-02-21T09:57:01;67.97;;;31.87;;
20456;SDS011;10387;51.102;6.848;2023-02-21T09:59:29;69.53;;;31.50;;
20456;SDS011;10387;51.102;6.848;2023-02-21T10:07:38;58.97;;;30.30;;
20456;SDS011;10387;51.102;6.848;2023-02-21T10:10:29;70.50;;;31.53;;
20456;SDS011;10387;51.102;6.848;2023-02-21T10:15:47;67.87;;;29.83;;
20456;SDS011;10387;51.102;6.848;2023-02-21T10:21:33;70.00;;;30.13;;
20456;SDS011;10387;51.102;6.848;2023-02-21T10:24:28;67.60;;;30.07;;
20456;SDS011;10387;51.102;6.848;2023-02-21T10:30:14;67.23;;;31.33;;
20456;SDS011;10387;51.102;6.848;2023-02-21T10:32:34;72.00;;;31.03;;
20456;SDS011;10387;51.102;6.848;2023-02-21T10:35:01;70.80;;;31.07;;
20456;SDS011;10387;51.102;6.848;2023-02-21T10:37:32;67.73;;;29.37;;
20456;SDS011;10387;51.102;6.848;2023-02-21T10:48:37;61.60;;;29.40;;
20456;SDS011;10387;51.102;6.848;2023-02-21T10:51:14;60.17;;;27.23;;
20456;SDS011;10387;51.102;6.848;2023-02-21T10:53:43;59.67;;;27.17;;
20456;SDS011;10387;51.102;6.848;2023-02-21T10:58:53;48.90;;;26.13;;
20456;SDS011;10387;51.102;6.848;2023-02-21T11:01:32;45.10;;;24.57;;
20456;SDS011;10387;51.102;6.848;2023-02-21T11:06:54;40.90;;;21.83;;
20456;SDS011;10387;51.102;6.848;2023-02-21T11:09:23;51.07;;;28.67;;
20456;SDS011;10387;51.102;6.848;2023-02-21T11:14:39;46.93;;;23.93;;
20456;SDS011;10387;51.102;6.848;2023-02-21T11:17:17;43.87;;;23.77;;
20456;SDS011;10387;51.102;6.848;2023-02-21T11:19:58;42.70;;;23.33;;
20456;SDS011;10387;51.102;6.848;2023-02-21T11:22:48;42.03;;;22.23;;
20456;SDS011;10387;51.102;6.848;2023-02-21T11:25:30;47.20;;;23.83;;
20456;SDS011;10387;51.102;6.848;2023-02-21T11:28:04;45.10;;;24.17;;
20456;SDS011;10387;51.102;6.848;2023-02-21T11:30:37;44.60;;;25.03;;
20456;SDS011;10387;51.102;6.848;2023-02-21T11:33:04;47.53;;;25.30;;
20456;SDS011;10387;51.102;6.848;2023-02-21T11:35:48;41.80;;;24.33;;
20456;SDS011;10387;51.102;6.848;2023-02-21T11:41:49;50.13;;;25.80;;
20456;SDS011;10387;51.102;6.848;2023-02-21T11:46:59;58.60;;;30.30;;
20456;SDS011;10387;51.102;6.848;2023-02-21T11:55:31;57.70;;;30.50;;
20456;SDS011;10387;51.102;6.848;2023-02-21T11:58:08;51.97;;;28.03;;
20456;SDS011;10387;51.102;6.848;2023-02-21T12:00:52;51.10;;;26.33;;
20456;SDS011;10387;51.102;6.848;2023-02-21T12:31:17;59.23;;;32.73;;
20456;SDS011;10387;51.102;6.848;2023-02-21T12:47:32;55.37;;;31.57;;
20456;SDS011;10387;51.102;6.848;2023-02-21T12:53:06;58.63;;;31.73;;
20456;SDS011;10387;51.102;6.848;2023-02-21T12:56:30;61.03;;;33.40;;
20456;SDS011;10387;51.102;6.848;2023-02-21T12:59:19;53.53;;;29.77;;
20456;SDS011;10387;51.102;6.848;2023-02-21T13:01:54;50.63;;;29.50;;
20456;SDS011;10387;51.102;6.848;2023-02-21T13:07:34;50.83;;;29.77;;
20456;SDS011;10387;51.102;6.848;2023-02-21T13:10:38;52.43;;;30.97;;
20456;SDS011;10387;51.102;6.848;2023-02-21T13:13:09;48.37;;;28.87;;
20456;SDS011;10387;51.102;6.848;2023-02-21T13:15:39;49.93;;;29.73;;
20456;SDS011;10387;51.102;6.848;2023-02-21T13:18:09;52.60;;;28.87;;
20456;SDS011;10387;51.102;6.848;2023-02-21T13:20:42;50.47;;;29.33;;
20456;SDS011;10387;51.102;6.848;2023-02-21T13:26:39;52.53;;;29.47;;
20456;SDS011;10387;51.102;6.848;2023-02-21T13:29:27;51.03;;;28.70;;
20456;SDS011;10387;51.102;6.848;2023-02-21T13:31:57;54.27;;;30.10;;
20456;SDS011;10387;51.102;6.848;2023-02-21T13:34:39;51.33;;;29.27;;
20456;SDS011;10387;51.102;6.848;2023-02-21T13:37:12;49.03;;;29.97;;
20456;SDS011;10387;51.102;6.848;2023-02-21T13:39:44;52.23;;;30.13;;
20456;SDS011;10387;51.102;6.848;2023-02-21T13:42:19;52.50;;;29.10;;
20456;SDS011;10387;51.102;6.848;2023-02-21T13:44:48;55.70;;;31.00;;
20456;SDS011;10387;51.102;6.848;2023-02-21T13:47:18;56.50;;;31.17;;
20456;SDS011;10387;51.102;6.848;2023-02-21T13:49:49;52.60;;;29.90;;
20456;SDS011;10387;51.102;6.848;2023-02-21T13:57:48;59.20;;;32.23;;
20456;SDS011;10387;51.102;6.848;2023-02-21T14:03:04;54.43;;;31.60;;
20456;SDS011;10387;51.102;6.848;2023-02-21T14:08:24;55.93;;;31.87;;
20456;SDS011;10387;51.102;6.848;2023-02-21T14:13:32;56.30;;;30.93;;
20456;SDS011;10387;51.102;6.848;2023-02-21T14:16:19;53.63;;;31.47;;
20456;SDS011;10387;51.102;6.848;2023-02-21T14:19:06;53.10;;;30.30;;
20456;SDS011;10387;51.102;6.848;2023-02-21T14:24:14;54.50;;;30.60;;
20456;SDS011;10387;51.102;6.848;2023-02-21T14:32:32;46.73;;;27.10;;
20456;SDS011;10387;51.102;6.848;2023-02-21T14:37:41;48.87;;;27.73;;
20456;SDS011;10387;51.102;6.848;2023-02-21T14:42:59;41.70;;;25.53;;
20456;SDS011;10387;51.102;6.848;2023-02-21T14:46:04;45.13;;;25.93;;
20456;SDS011;10387;51.102;6.848;2023-02-21T14:49:19;43.83;;;26.03;;
20456;SDS011;10387;51.102;6.848;2023-02-21T14:52:07;50.67;;;28.53;;
20456;SDS011;10387;51.102;6.848;2023-02-21T15:03:14;46.27;;;26.70;;
20456;SDS011;10387;51.102;6.848;2023-02-21T15:05:53;48.93;;;27.47;;
20456;SDS011;10387;51.102;6.848;2023-02-21T15:08:44;44.97;;;26.73;;
20456;SDS011;10387;51.102;6.848;2023-02-21T15:14:21;43.67;;;26.50;;
20456;SDS011;10387;51.102;6.848;2023-02-21T15:16:53;49.40;;;29.33;;
20456;SDS011;10387;51.102;6.848;2023-02-21T15:19:35;45.10;;;27.70;;
20456;SDS011;10387;51.102;6.848;2023-02-21T15:25:01;45.80;;;27.60;;
20456;SDS011;10387;51.102;6.848;2023-02-21T15:30:15;48.93;;;27.50;;
20456;SDS011;10387;51.102;6.848;2023-02-21T15:32:42;57.93;;;32.03;;
20456;SDS011;10387;51.102;6.848;2023-02-21T15:35:12;54.57;;;31.67;;
20456;SDS011;10387;51.102;6.848;2023-02-21T15:37:46;58.47;;;33.37;;
20456;SDS011;10387;51.102;6.848;2023-02-21T15:40:16;55.93;;;32.37;;
20456;SDS011;10387;51.102;6.848;2023-02-21T15:42:47;57.37;;;32.60;;
20456;SDS011;10387;51.102;6.848;2023-02-21T15:45:23;57.70;;;32.67;;
20456;SDS011;10387;51.102;6.848;2023-02-21T15:48:03;55.97;;;32.67;;
20456;SDS011;10387;51.102;6.848;2023-02-21T15:50:31;53.00;;;31.90;;
20456;SDS011;10387;51.102;6.848;2023-02-21T15:53:09;54.50;;;31.63;;
20456;SDS011;10387;51.102;6.848;2023-02-21T15:55:35;57.50;;;31.70;;
20456;SDS011;10387;51.102;6.848;2023-02-21T15:58:08;55.93;;;31.80;;
20456;SDS011;10387;51.102;6.848;2023-02-21T16:00:42;51.50;;;32.50;;
20456;SDS011;10387;51.102;6.848;2023-02-21T16:06:14;60.60;;;33.33;;
20456;SDS011;10387;51.102;6.848;2023-02-21T16:09:06;54.93;;;31.00;;
20456;SDS011;10387;51.102;6.848;2023-02-21T16:11:51;53.33;;;31.73;;
20456;SDS011;10387;51.102;6.848;2023-02-21T16:14:23;50.53;;;30.23;;
20456;SDS011;10387;51.102;6.848;2023-02-21T16:19:37;49.37;;;29.77;;
20456;SDS011;10387;51.102;6.848;2023-02-21T16:22:12;51.47;;;30.00;;
20456;SDS011;10387;51.102;6.848;2023-02-21T16:24:47;54.30;;;30.17;;
20456;SDS011;10387;51.102;6.848;2023-02-21T16:27:14;52.00;;;30.23;;
20456;SDS011;10387;51.102;6.848;2023-02-21T16:29:41;50.90;;;31.00;;
20456;SDS011;10387;51.102;6.848;2023-02-21T16:32:17;57.00;;;32.40;;
20456;SDS011;10387;51.102;6.848;2023-02-21T16:34:45;53.93;;;31.23;;
20456;SDS011;10387;51.102;6.848;2023-02-21T16:37:12;56.10;;;32.37;;
20456;SDS011;10387;51.102;6.848;2023-02-21T16:39:38;51.90;;;31.80;;
20456;SDS011;10387;51.102;6.848;2023-02-21T16:42:05;55.27;;;31.37;;
20456;SDS011;10387;51.102;6.848;2023-02-21T16:44:31;52.73;;;31.27;;
20456;SDS011;10387;51.102;6.848;2023-02-21T16:46:57;40.80;;;23.03;;
20456;SDS011;10387;51.102;6.848;2023-02-21T16:49:23;39.07;;;22.60;;
20456;SDS011;10387;51.102;6.848;2023-02-21T16:51:50;38.53;;;22.27;;
20456;SDS011;10387;51.102;6.848;2023-02-21T16:54:17;33.20;;;20.87;;
20456;SDS011;10387;51.102;6.848;2023-02-21T16:56:43;33.90;;;20.50;;
20456;SDS011;10387;51.102;6.848;2023-02-21T16:59:12;32.17;;;19.60;;
20456;SDS011;10387;51.102;6.848;2023-02-21T17:01:40;33.57;;;19.83;;
20456;SDS011;10387;51.102;6.848;2023-02-21T17:04:17;36.77;;;20.60;;
20456;SDS011;10387;51.102;6.848;2023-02-21T17:06:46;33.63;;;20.50;;
20456;SDS011;10387;51.102;6.848;2023-02-21T17:09:17;38.10;;;21.33;;
20456;SDS011;10387;51.102;6.848;2023-02-21T17:11:45;36.40;;;22.23;;
20456;SDS011;10387;51.102;6.848;2023-02-21T17:14:11;34.40;;;21.53;;
20456;SDS011;10387;51.102;6.848;2023-02-21T17:16:37;36.80;;;21.70;;
20456;SDS011;10387;51.102;6.848;2023-02-21T17:19:03;37.90;;;21.93;;
20456;SDS011;10387;51.102;6.848;2023-02-21T17:21:30;37.80;;;21.73;;
20456;SDS011;10387;51.102;6.848;2023-02-21T17:23:56;37.50;;;22.07;;
20456;SDS011;10387;51.102;6.848;2023-02-21T17:37:32;36.60;;;21.43;;
20456;SDS011;10387;51.102;6.848;2023-02-21T17:41:08;37.17;;;22.37;;
20456;SDS011;10387;51.102;6.848;2023-02-21T17:43:34;38.27;;;22.17;;
20456;SDS011;10387;51.102;6.848;2023-02-21T17:46:13;39.67;;;22.40;;
20456;SDS011;10387;51.102;6.848;2023-02-21T17:52:01;40.17;;;23.40;;
20456;SDS011;10387;51.102;6.848;2023-02-21T17:54:58;36.13;;;23.00;;
20456;SDS011;10387;51.102;6.848;2023-02-21T17:57:26;38.10;;;21.13;;
20456;SDS011;10387;51.102;6.848;2023-02-21T17:59:54;37.00;;;22.57;;
20456;SDS011;10387;51.102;6.848;2023-02-21T18:02:19;39.03;;;22.47;;
20456;SDS011;10387;51.102;6.848;2023-02-21T18:04:55;38.13;;;22.63;;
20456;SDS011;10387;51.102;6.848;2023-02-21T18:07:28;37.70;;;22.47;;
20456;SDS011;10387;51.102;6.848;2023-02-21T18:10:03;35.77;;;21.67;;
20456;SDS011;10387;51.102;6.848;2023-02-21T18:12:30;40.83;;;23.40;;
20456;SDS011;10387;51.102;6.848;2023-02-21T18:14:57;38.67;;;22.43;;
20456;SDS011;10387;51.102;6.848;2023-02-21T18:17:24;37.17;;;22.20;;